createdAt,value
2022-08-16T00:00:20.386Z,15.82
2022-08-16T00:01:07.989Z,15.82
2022-08-16T00:02:12.710Z,15.71
2022-08-16T00:03:13.219Z,15.87
2022-08-16T00:04:08.028Z,15.85
2022-08-16T00:05:08.004Z,15.8
2022-08-16T00:06:08.089Z,16.07
2022-08-16T00:07:08.105Z,15.9
2022-08-16T00:08:08.109Z,16.11
2022-08-16T00:09:07.998Z,16.03
2022-08-16T00:10:08.038Z,16.19
2022-08-16T00:11:08.034Z,16.2
2022-08-16T00:12:08.022Z,16.2
2022-08-16T00:13:07.981Z,16.24
2022-08-16T00:14:08.596Z,16.03
2022-08-16T00:15:11.594Z,16.09
2022-08-16T00:17:05.812Z,16.03
2022-08-16T00:17:18.488Z,15.98
2022-08-16T00:18:08.200Z,16.09
2022-08-16T00:19:07.980Z,16.1
2022-08-16T00:20:08.000Z,16.08
2022-08-16T00:21:08.058Z,16.08
2022-08-16T00:22:12.706Z,16.19
2022-08-16T00:23:07.980Z,15.99
2022-08-16T00:24:11.424Z,16.06
2022-08-16T00:25:08.032Z,16.18
2022-08-16T00:26:35.263Z,16.04
2022-08-16T00:27:08.546Z,16.11
2022-08-16T00:28:08.022Z,16.2
2022-08-16T00:29:07.979Z,16.21
2022-08-16T00:30:09.293Z,16.15
2022-08-16T00:31:08.018Z,16.3
2022-08-16T00:32:08.042Z,16.16
2022-08-16T00:33:08.324Z,16.2
2022-08-16T00:34:08.078Z,16.39
2022-08-16T00:35:13.302Z,16.27
2022-08-16T00:36:07.988Z,16.16
2022-08-16T00:37:08.080Z,15.95
2022-08-16T00:38:41.414Z,16.06
2022-08-16T00:39:08.143Z,16.04
2022-08-16T00:40:08.081Z,16.09
2022-08-16T00:41:07.989Z,16.11
2022-08-16T00:42:10.305Z,16.21
2022-08-16T00:43:12.045Z,16.28
2022-08-16T00:44:07.989Z,16.24
2022-08-16T00:45:09.262Z,16.26
2022-08-16T00:46:33.275Z,16.03
2022-08-16T00:47:07.985Z,16.09
2022-08-16T00:48:30.177Z,16.05
2022-08-16T00:49:17.459Z,16.05
2022-08-16T00:50:08.756Z,16.01
2022-08-16T00:51:07.985Z,16.05
2022-08-16T00:52:29.735Z,16.07
2022-08-16T00:53:08.044Z,16.07
2022-08-16T00:54:07.991Z,16.1
2022-08-16T00:55:08.397Z,16.17
2022-08-16T00:56:08.010Z,16.02
2022-08-16T00:57:07.997Z,15.99
2022-08-16T00:58:12.879Z,16.08
2022-08-16T00:59:08.044Z,16.11
2022-08-16T01:00:08.054Z,16.09
2022-08-16T01:01:08.771Z,16.33
2022-08-16T01:02:31.930Z,16.23
2022-08-16T01:03:08.076Z,16.33
2022-08-16T01:04:28.917Z,16.11
2022-08-16T01:05:10.837Z,16.26
2022-08-16T01:06:40.186Z,16.36
2022-08-16T01:07:08.043Z,16.4
2022-08-16T01:08:36.227Z,16.31
2022-08-16T01:09:08.005Z,16.3
2022-08-16T01:10:16.180Z,16.21
2022-08-16T01:11:08.005Z,16.3
2022-08-16T01:12:08.551Z,16.41
2022-08-16T01:13:08.102Z,16.36
2022-08-16T01:14:08.052Z,16.32
2022-08-16T01:15:07.993Z,16.37
2022-08-16T01:16:10.330Z,16.48
2022-08-16T01:17:08.292Z,16.42
2022-08-16T01:18:08.004Z,16.41
2022-08-16T01:19:08.010Z,16.45
2022-08-16T01:20:23.650Z,16.41
2022-08-16T01:21:08.038Z,16.48
2022-08-16T01:22:46.846Z,16.52
2022-08-16T01:23:08.492Z,16.53
2022-08-16T01:24:52.651Z,16.56
2022-08-16T01:25:08.001Z,16.55
2022-08-16T01:26:34.535Z,16.46
2022-08-16T01:27:08.067Z,16.37
2022-08-16T01:28:08.042Z,16.35
2022-08-16T01:29:09.766Z,16.36
2022-08-16T01:30:19.649Z,16.4
2022-08-16T01:31:07.992Z,16.46
2022-08-16T01:32:09.299Z,16.52
2022-08-16T01:33:14.357Z,16.37
2022-08-16T01:34:08.054Z,16.4
2022-08-16T01:35:08.061Z,16.32
2022-08-16T01:36:11.653Z,16.38
2022-08-16T01:37:08.003Z,16.35
2022-08-16T01:38:08.069Z,16.47
2022-08-16T01:39:08.074Z,16.42
2022-08-16T01:40:08.081Z,16.42
2022-08-16T01:41:08.086Z,16.37
2022-08-16T01:42:12.934Z,16.5
2022-08-16T01:43:08.003Z,16.46
2022-08-16T01:44:08.019Z,16.39
2022-08-16T01:45:08.101Z,16.33
2022-08-16T01:46:37.766Z,16.4
2022-08-16T01:47:08.123Z,16.39
2022-08-16T01:48:19.514Z,16.35
2022-08-16T01:49:08.059Z,16.5
2022-08-16T01:50:41.731Z,16.54
2022-08-16T01:51:16.518Z,16.52
2022-08-16T01:52:08.039Z,16.43
2022-08-16T01:53:08.061Z,16.43
2022-08-16T01:54:08.068Z,16.43
2022-08-16T01:55:08.065Z,16.48
2022-08-16T01:56:08.234Z,16.56
2022-08-16T01:57:08.012Z,16.49
2022-08-16T01:58:08.086Z,16.37
2022-08-16T01:59:08.014Z,16.48
2022-08-16T02:00:10.575Z,16.45
2022-08-16T02:01:08.131Z,16.65
2022-08-16T02:02:27.134Z,16.56
2022-08-16T02:03:08.060Z,16.42
2022-08-16T02:04:10.750Z,16.72
2022-08-16T02:05:08.042Z,16.58
2022-08-16T02:06:08.171Z,16.63
2022-08-16T02:07:08.015Z,16.61
2022-08-16T02:08:08.025Z,16.58
2022-08-16T02:09:11.847Z,16.61
2022-08-16T02:10:08.069Z,16.62
2022-08-16T02:11:08.063Z,16.52
2022-08-16T02:12:49.642Z,16.59
2022-08-16T02:13:08.443Z,16.59
2022-08-16T02:14:08.010Z,16.6
2022-08-16T02:15:08.010Z,16.52
2022-08-16T02:16:08.067Z,16.51
2022-08-16T02:17:08.066Z,16.54
2022-08-16T02:18:08.008Z,16.56
2022-08-16T02:19:16.196Z,16.76
2022-08-16T02:20:11.438Z,16.85
2022-08-16T02:21:08.015Z,16.75
2022-08-16T02:22:34.687Z,16.65
2022-08-16T02:23:08.145Z,16.68
2022-08-16T02:24:32.211Z,16.79
2022-08-16T02:25:08.316Z,16.89
2022-08-16T02:26:08.072Z,16.79
2022-08-16T02:27:08.016Z,16.79
2022-08-16T02:28:08.014Z,16.79
2022-08-16T02:29:08.021Z,16.79
2022-08-16T02:30:08.103Z,16.69
2022-08-16T02:31:08.056Z,16.69
2022-08-16T02:32:50.117Z,16.69
2022-08-16T02:33:08.633Z,16.59
2022-08-16T02:34:08.049Z,16.69
2022-08-16T02:35:09.234Z,16.69
2022-08-16T02:36:08.007Z,16.59
2022-08-16T02:37:08.126Z,16.59
2022-08-16T02:38:08.833Z,16.69
2022-08-16T02:39:07.995Z,16.69
2022-08-16T02:40:08.008Z,16.59
2022-08-16T02:41:09.721Z,16.59
2022-08-16T02:42:08.013Z,16.69
2022-08-16T02:43:08.066Z,16.69
2022-08-16T02:44:08.063Z,16.69
2022-08-16T02:45:08.060Z,16.69
2022-08-16T02:46:08.113Z,16.59
2022-08-16T02:47:08.011Z,16.69
2022-08-16T02:48:28.907Z,16.69
2022-08-16T02:49:08.012Z,16.69
2022-08-16T02:50:55.260Z,16.59
2022-08-16T02:51:10.918Z,16.5
2022-08-16T02:52:09.061Z,16.5
2022-08-16T02:53:08.045Z,16.5
2022-08-16T02:54:08.498Z,16.5
2022-08-16T02:55:08.054Z,16.5
2022-08-16T02:56:09.719Z,16.5
2022-08-16T02:57:08.075Z,16.5
2022-08-16T02:58:08.086Z,16.5
2022-08-16T02:59:11.828Z,16.5
2022-08-16T03:00:34.355Z,16.5
2022-08-16T03:01:08.384Z,16.5
2022-08-16T03:02:08.938Z,16.5
2022-08-16T03:03:10.285Z,16.5
2022-08-16T03:04:46.312Z,16.4
2022-08-16T03:05:08.085Z,16.3
2022-08-16T03:06:39.101Z,16.3
2022-08-16T03:07:08.036Z,16.3
2022-08-16T03:08:51.188Z,16.3
2022-08-16T03:09:13.103Z,16.3
2022-08-16T03:10:08.059Z,16.3
2022-08-16T03:11:17.859Z,16.3
2022-08-16T03:12:08.070Z,16.3
2022-08-16T03:13:12.470Z,16.3
2022-08-16T03:14:08.498Z,16.3
2022-08-16T03:15:08.033Z,16.3
2022-08-16T03:16:08.045Z,16.3
2022-08-16T03:17:08.026Z,16.3
2022-08-16T03:18:12.552Z,16.21
2022-08-16T03:19:08.082Z,16.21
2022-08-16T03:20:08.099Z,16.21
2022-08-16T03:21:08.026Z,16.3
2022-08-16T03:22:08.021Z,16.3
2022-08-16T03:23:08.024Z,16.3
2022-08-16T03:24:29.195Z,16.3
2022-08-16T03:25:08.032Z,16.3
2022-08-16T03:26:08.066Z,16.3
2022-08-16T03:27:08.072Z,16.21
2022-08-16T03:28:08.052Z,16.21
2022-08-16T03:29:08.016Z,16.21
2022-08-16T03:30:16.192Z,16.21
2022-08-16T03:31:08.030Z,16.11
2022-08-16T03:32:08.080Z,16.21
2022-08-16T03:33:08.265Z,16.21
2022-08-16T03:34:08.107Z,16.21
2022-08-16T03:35:08.028Z,16.21
2022-08-16T03:36:30.363Z,16.11
2022-08-16T03:37:08.062Z,16.11
2022-08-16T03:38:34.106Z,16.11
2022-08-16T03:39:14.944Z,16.01
2022-08-16T03:40:08.185Z,16.01
2022-08-16T03:41:17.040Z,15.92
2022-08-16T03:42:09.643Z,16.01
2022-08-16T03:43:20.642Z,16.01
2022-08-16T03:44:08.089Z,15.92
2022-08-16T03:45:08.062Z,15.92
2022-08-16T03:46:08.041Z,15.92
2022-08-16T03:47:10.299Z,15.92
2022-08-16T03:48:08.074Z,15.92
2022-08-16T03:49:08.034Z,16.01
2022-08-16T03:50:26.261Z,16.01
2022-08-16T03:51:08.030Z,16.01
2022-08-16T03:52:08.035Z,16.01
2022-08-16T03:53:08.037Z,15.92
2022-08-16T03:54:12.359Z,15.92
2022-08-16T03:55:10.486Z,15.92
2022-08-16T03:56:19.578Z,15.92
2022-08-16T03:57:11.313Z,15.92
2022-08-16T03:58:08.033Z,15.83
2022-08-16T03:59:08.039Z,15.83
2022-08-16T04:00:08.055Z,15.73
2022-08-16T04:01:08.129Z,15.73
2022-08-16T04:02:12.181Z,15.73
2022-08-16T04:03:08.733Z,15.64
2022-08-16T04:04:08.042Z,15.64
2022-08-16T04:05:08.044Z,15.73
2022-08-16T04:06:08.036Z,15.73
2022-08-16T04:07:08.049Z,15.64
2022-08-16T04:08:23.638Z,15.73
2022-08-16T04:09:08.215Z,15.73
2022-08-16T04:10:27.989Z,15.73
2022-08-16T04:11:08.034Z,15.73
2022-08-16T04:12:08.650Z,15.73
2022-08-16T04:13:20.739Z,15.73
2022-08-16T04:14:30.990Z,15.83
2022-08-16T04:15:08.086Z,15.83
2022-08-16T04:16:08.094Z,15.83
2022-08-16T04:17:08.046Z,15.73
2022-08-16T04:18:08.081Z,15.73
2022-08-16T04:19:08.049Z,15.73
2022-08-16T04:20:31.326Z,15.73
2022-08-16T04:21:08.037Z,15.83
2022-08-16T04:22:08.757Z,15.92
2022-08-16T04:23:08.105Z,15.92
2022-08-16T04:24:08.245Z,15.83
2022-08-16T04:25:08.049Z,15.83
2022-08-16T04:26:08.078Z,15.83
2022-08-16T04:27:08.916Z,15.83
2022-08-16T04:28:52.231Z,15.83
2022-08-16T04:29:16.621Z,15.83
2022-08-16T04:30:10.827Z,15.73
2022-08-16T04:31:10.677Z,15.83
2022-08-16T04:32:08.034Z,15.73
2022-08-16T04:33:08.052Z,15.83
2022-08-16T04:34:08.047Z,15.92
2022-08-16T04:35:13.767Z,15.83
2022-08-16T04:36:08.102Z,15.83
2022-08-16T04:37:08.100Z,15.83
2022-08-16T04:38:11.066Z,15.73
2022-08-16T04:39:08.060Z,15.73
2022-08-16T04:40:08.127Z,15.73
2022-08-16T04:41:08.037Z,15.73
2022-08-16T04:42:10.891Z,15.73
2022-08-16T04:43:08.089Z,15.83
2022-08-16T04:44:32.429Z,15.83
2022-08-16T04:45:08.125Z,15.92
2022-08-16T04:46:32.038Z,15.92
2022-08-16T04:47:21.767Z,15.83
2022-08-16T04:48:08.057Z,15.92
2022-08-16T04:49:08.048Z,15.92
2022-08-16T04:50:08.136Z,15.83
2022-08-16T04:51:12.039Z,15.92
2022-08-16T04:52:27.052Z,15.92
2022-08-16T04:53:08.044Z,15.92
2022-08-16T04:54:08.070Z,15.92
2022-08-16T04:55:08.047Z,15.92
2022-08-16T04:56:11.372Z,15.92
2022-08-16T04:57:08.548Z,16.01
2022-08-16T04:58:43.751Z,16.01
2022-08-16T04:59:08.037Z,16.01
2022-08-16T05:00:30.539Z,16.01
2022-08-16T05:01:08.178Z,16.01
2022-08-16T05:02:40.997Z,16.11
2022-08-16T05:03:08.413Z,16.11
2022-08-16T05:04:19.598Z,16.11
2022-08-16T05:05:08.094Z,16.01
2022-08-16T05:06:09.246Z,16.11
2022-08-16T05:07:10.983Z,16.01
2022-08-16T05:08:29.743Z,16.11
2022-08-16T05:09:08.045Z,16.21
2022-08-16T05:10:19.911Z,16.11
2022-08-16T05:11:08.549Z,16.11
2022-08-16T05:12:11.077Z,16.21
2022-08-16T05:13:08.052Z,16.21
2022-08-16T05:14:08.059Z,16.11
2022-08-16T05:15:08.050Z,16.11
2022-08-16T05:16:08.054Z,16.21
2022-08-16T05:17:08.049Z,16.21
2022-08-16T05:18:08.139Z,16.21
2022-08-16T05:19:11.497Z,16.11
2022-08-16T05:20:38.925Z,16.21
2022-08-16T05:21:11.068Z,16.21
2022-08-16T05:22:08.066Z,16.3
2022-08-16T05:23:08.043Z,16.3
2022-08-16T05:24:09.259Z,16.4
2022-08-16T05:25:08.752Z,16.4
2022-08-16T05:26:09.172Z,16.4
2022-08-16T05:27:11.176Z,16.5
2022-08-16T05:28:08.053Z,16.5
2022-08-16T05:29:10.921Z,16.5
2022-08-16T05:30:36.827Z,16.5
2022-08-16T05:31:08.066Z,16.5
2022-08-16T05:32:32.338Z,16.59
2022-08-16T05:33:08.890Z,16.5
2022-08-16T05:34:19.724Z,16.59
2022-08-16T05:35:10.882Z,16.5
2022-08-16T05:36:14.101Z,16.5
2022-08-16T05:37:08.066Z,16.5
2022-08-16T05:38:33.115Z,16.5
2022-08-16T05:39:08.649Z,16.5
2022-08-16T05:40:08.203Z,16.5
2022-08-16T05:41:09.498Z,16.5
2022-08-16T05:42:08.081Z,16.59
2022-08-16T05:43:08.054Z,16.69
2022-08-16T05:44:22.417Z,16.79
2022-08-16T05:45:08.066Z,16.79
2022-08-16T05:46:28.462Z,16.79
2022-08-16T05:47:08.111Z,16.79
2022-08-16T05:48:08.483Z,16.89
2022-08-16T05:49:09.366Z,16.79
2022-08-16T05:50:08.072Z,16.89
2022-08-16T05:51:08.059Z,16.89
2022-08-16T05:52:11.585Z,16.89
2022-08-16T05:53:08.124Z,16.79
2022-08-16T05:54:08.147Z,16.89
2022-08-16T05:55:08.061Z,16.99
2022-08-16T05:56:08.065Z,16.89
2022-08-16T05:57:08.081Z,16.99
2022-08-16T05:58:08.069Z,17.09
2022-08-16T05:59:08.078Z,17.09
2022-08-16T06:00:09.372Z,17.09
2022-08-16T06:01:08.161Z,17.09
2022-08-16T06:02:08.070Z,17.19
2022-08-16T06:03:08.066Z,17.09
2022-08-16T06:04:12.799Z,17.19
2022-08-16T06:05:10.781Z,17.19
2022-08-16T06:06:08.528Z,17.29
2022-08-16T06:07:09.687Z,17.29
2022-08-16T06:08:08.125Z,17.29
2022-08-16T06:09:08.957Z,17.39
2022-08-16T06:10:08.094Z,17.39
2022-08-16T06:11:11.366Z,17.49
2022-08-16T06:12:08.082Z,17.39
2022-08-16T06:13:08.059Z,17.39
2022-08-16T06:14:08.116Z,17.39
2022-08-16T06:15:09.942Z,17.49
2022-08-16T06:16:08.083Z,17.49
2022-08-16T06:17:08.074Z,17.49
2022-08-16T06:18:08.060Z,17.6
2022-08-16T06:19:08.077Z,17.6
2022-08-16T06:20:08.150Z,17.7
2022-08-16T06:21:08.142Z,17.6
2022-08-16T06:22:08.169Z,17.7
2022-08-16T06:23:11.637Z,17.7
2022-08-16T06:24:52.676Z,17.8
2022-08-16T06:25:08.070Z,17.8
2022-08-16T06:26:08.119Z,17.8
2022-08-16T06:27:08.071Z,17.7
2022-08-16T06:28:08.348Z,17.91
2022-08-16T06:29:13.225Z,18.01
2022-08-16T06:30:08.081Z,17.91
2022-08-16T06:31:11.917Z,18.01
2022-08-16T06:32:08.065Z,18.01
2022-08-16T06:33:08.076Z,18.12
2022-08-16T06:34:54.851Z,18.01
2022-08-16T06:35:08.092Z,18.01
2022-08-16T06:36:08.439Z,18.12
2022-08-16T06:37:08.072Z,18.22
2022-08-16T06:38:32.670Z,18.33
2022-08-16T06:39:08.119Z,18.33
2022-08-16T06:40:12.634Z,18.22
2022-08-16T06:41:13.497Z,18.33
2022-08-16T06:42:08.143Z,18.33
2022-08-16T06:43:08.123Z,18.33
2022-08-16T06:44:08.076Z,18.33
2022-08-16T06:45:08.063Z,18.43
2022-08-16T06:46:09.779Z,18.54
2022-08-16T06:47:08.074Z,18.54
2022-08-16T06:48:08.075Z,18.54
2022-08-16T06:49:08.123Z,18.54
2022-08-16T06:50:08.136Z,18.43
2022-08-16T06:51:08.078Z,18.43
2022-08-16T06:52:08.071Z,18.54
2022-08-16T06:53:08.944Z,18.54
2022-08-16T06:54:08.073Z,18.65
2022-08-16T06:55:08.074Z,18.76
2022-08-16T06:56:13.875Z,18.87
2022-08-16T06:57:16.489Z,18.98
2022-08-16T06:58:08.402Z,19.09
2022-08-16T06:59:09.005Z,19.2
2022-08-16T07:00:17.529Z,19.09
2022-08-16T07:01:09.912Z,19.09
2022-08-16T07:02:08.123Z,19.31
2022-08-16T07:03:27.135Z,19.31
2022-08-16T07:04:11.162Z,19.31
2022-08-16T07:05:15.008Z,19.31
2022-08-16T07:06:08.074Z,19.42
2022-08-16T07:07:09.768Z,19.42
2022-08-16T07:08:08.092Z,19.42
2022-08-16T07:09:09.544Z,19.53
2022-08-16T07:10:08.494Z,19.37
2022-08-16T07:11:09.046Z,19.11
2022-08-16T07:12:08.073Z,18.93
2022-08-16T07:13:12.029Z,19.1
2022-08-16T07:14:24.508Z,19.32
2022-08-16T07:15:08.541Z,19.08
2022-08-16T07:16:08.076Z,18.93
2022-08-16T07:17:11.375Z,18.88
2022-08-16T07:18:08.159Z,18.65
2022-08-16T07:19:08.081Z,18.52
2022-08-16T07:20:30.071Z,18.88
2022-08-16T07:21:08.082Z,18.91
2022-08-16T07:22:08.471Z,19.03
2022-08-16T07:23:13.370Z,18.79
2022-08-16T07:24:08.141Z,18.98
2022-08-16T07:25:08.161Z,19.02
2022-08-16T07:26:08.095Z,19.33
2022-08-16T07:27:08.517Z,19.11
2022-08-16T07:28:12.004Z,18.93
2022-08-16T07:29:08.095Z,18.71
2022-08-16T07:30:39.579Z,18.7
2022-08-16T07:31:13.210Z,18.9
2022-08-16T07:32:08.136Z,19.15
2022-08-16T07:33:08.072Z,19.2
2022-08-16T07:34:10.065Z,19.5
2022-08-16T07:35:08.084Z,19.24
2022-08-16T07:36:09.597Z,19.05
2022-08-16T07:37:08.093Z,18.87
2022-08-16T07:38:08.139Z,18.75
2022-08-16T07:39:08.152Z,18.45
2022-08-16T07:40:11.343Z,18.64
2022-08-16T07:41:09.826Z,18.56
2022-08-16T07:42:08.116Z,18.47
2022-08-16T07:43:08.148Z,18.28
2022-08-16T07:44:15.374Z,18.09
2022-08-16T07:45:10.299Z,18.45
2022-08-16T07:46:39.276Z,18.6
2022-08-16T07:47:08.082Z,18.62
2022-08-16T07:48:11.493Z,18.39
2022-08-16T07:49:11.481Z,18.37
2022-08-16T07:50:08.125Z,18.54
2022-08-16T07:51:09.174Z,18.82
2022-08-16T07:52:20.075Z,18.62
2022-08-16T07:53:08.139Z,18.31
2022-08-16T07:54:10.137Z,18.26
2022-08-16T07:55:08.087Z,18.32
2022-08-16T07:56:08.105Z,18.12
2022-08-16T07:57:08.115Z,18.21
2022-08-16T07:58:08.090Z,18.27
2022-08-16T07:59:08.142Z,17.87
2022-08-16T08:00:08.146Z,17.72
2022-08-16T08:01:10.792Z,18.07
2022-08-16T08:02:12.011Z,18.12
2022-08-16T08:03:08.125Z,17.97
2022-08-16T08:04:08.087Z,17.95
2022-08-16T08:05:08.096Z,18.08
2022-08-16T08:06:10.193Z,17.76
2022-08-16T08:07:09.057Z,17.96
2022-08-16T08:08:11.379Z,17.63
2022-08-16T08:09:08.095Z,17.62
2022-08-16T08:10:11.135Z,17.43
2022-08-16T08:11:09.340Z,17.78
2022-08-16T08:12:08.089Z,17.81
2022-08-16T08:13:08.140Z,17.59
2022-08-16T08:14:08.150Z,17.66
2022-08-16T08:15:09.879Z,17.37
2022-08-16T08:16:08.095Z,17.21
2022-08-16T08:17:08.655Z,17.16
2022-08-16T08:18:30.025Z,17.37
2022-08-16T08:19:08.090Z,17.55
2022-08-16T08:20:08.138Z,17.23
2022-08-16T08:21:08.133Z,17.46
2022-08-16T08:22:08.087Z,17.28
2022-08-16T08:23:08.095Z,17.43
2022-08-16T08:24:09.233Z,17.56
2022-08-16T08:25:08.108Z,17.52
2022-08-16T08:26:17.686Z,17.48
2022-08-16T08:27:08.122Z,16.85
2022-08-16T08:28:10.796Z,15.79
2022-08-16T08:29:08.613Z,16.3
2022-08-16T08:30:48.904Z,16.57
2022-08-16T08:31:08.201Z,16.59
2022-08-16T08:33:02.256Z,16.05
2022-08-16T08:33:08.343Z,16.1
2022-08-16T08:34:08.159Z,16.19
2022-08-16T08:35:08.151Z,16.47
2022-08-16T08:36:08.113Z,15.93
2022-08-16T08:37:08.108Z,16.39
2022-08-16T08:38:08.111Z,16.59
2022-08-16T08:39:12.763Z,16.42
2022-08-16T08:40:08.173Z,16.25
2022-08-16T08:41:08.155Z,16.49
2022-08-16T08:42:08.149Z,16.66
2022-08-16T08:43:12.633Z,16.68
2022-08-16T08:44:28.866Z,16.24
2022-08-16T08:45:08.107Z,16.16
2022-08-16T08:46:17.801Z,16.34
2022-08-16T08:47:11.575Z,16.61
2022-08-16T08:48:08.155Z,16.58
2022-08-16T08:49:08.864Z,16.5
2022-08-16T08:50:08.151Z,15.92
2022-08-16T08:51:08.957Z,15.91
2022-08-16T08:52:08.249Z,16.2
2022-08-16T08:53:08.141Z,16.29
2022-08-16T08:54:09.357Z,16.68
2022-08-16T08:55:10.732Z,16.2
2022-08-16T08:56:22.563Z,15.72
2022-08-16T08:57:08.179Z,15.72
2022-08-16T08:58:08.174Z,15.85
2022-08-16T08:59:13.161Z,15.6
2022-08-16T09:00:13.536Z,16.04
2022-08-16T09:01:08.118Z,16.03
2022-08-16T09:02:08.165Z,15.81
2022-08-16T09:03:08.204Z,15.89
2022-08-16T09:04:08.174Z,15.98
2022-08-16T09:05:15.201Z,16.21
2022-08-16T09:06:08.117Z,16.62
2022-08-16T09:07:08.119Z,16.41
2022-08-16T09:08:09.081Z,15.97
2022-08-16T09:09:08.149Z,16
2022-08-16T09:10:20.725Z,16.36
2022-08-16T09:11:08.105Z,15.51
2022-08-16T09:12:08.108Z,16
2022-08-16T09:13:08.152Z,15.77
2022-08-16T09:14:08.108Z,15.53
2022-08-16T09:15:08.100Z,15.8
2022-08-16T09:16:08.166Z,15.78
2022-08-16T09:17:14.142Z,15.87
2022-08-16T09:18:26.305Z,15.63
2022-08-16T09:20:08.117Z,15.25
2022-08-16T09:21:09.346Z,15.26
2022-08-16T09:22:08.111Z,14.91
2022-08-16T09:23:08.169Z,14.91
2022-08-16T09:24:09.893Z,14.9
2022-08-16T09:25:11.314Z,15.47
2022-08-16T09:26:43.094Z,15.54
2022-08-16T09:27:08.115Z,15.32
2022-08-16T09:28:08.906Z,15.27
2022-08-16T09:29:16.963Z,15.3
2022-08-16T09:30:34.212Z,15.5
2022-08-16T09:31:08.164Z,15.72
2022-08-16T09:32:08.176Z,15.61
2022-08-16T09:33:08.119Z,15.3
2022-08-16T09:34:08.229Z,15.07
2022-08-16T09:35:08.126Z,15.22
2022-08-16T09:36:12.221Z,15.49
2022-08-16T09:37:18.176Z,14.92
2022-08-16T09:38:08.699Z,15.05
2022-08-16T09:39:08.107Z,15.13
2022-08-16T09:40:32.559Z,15.24
2022-08-16T09:41:14.992Z,15.66
2022-08-16T09:42:08.111Z,15.17
2022-08-16T09:43:08.806Z,14.96
2022-08-16T09:45:08.170Z,15.01
2022-08-16T09:45:09.746Z,15.09
2022-08-16T09:46:48.059Z,15.15
2022-08-16T09:47:10.326Z,15.17
2022-08-16T09:48:08.121Z,14.99
2022-08-16T09:49:08.485Z,15.13
2022-08-16T09:50:11.718Z,15.1
2022-08-16T09:51:08.168Z,15.31
2022-08-16T09:52:09.617Z,15.27
2022-08-16T09:53:08.118Z,15.19
2022-08-16T09:54:09.599Z,14.84
2022-08-16T09:55:08.123Z,15.49
2022-08-16T09:56:11.380Z,15.22
2022-08-16T09:57:08.132Z,15.08
2022-08-16T09:58:08.141Z,15.22
2022-08-16T09:59:08.631Z,15.31
2022-08-16T10:00:44.074Z,15.05
2022-08-16T10:01:08.637Z,14.97
2022-08-16T10:02:27.435Z,14.8
2022-08-16T10:03:09.163Z,14.91
2022-08-16T10:04:29.797Z,14.41
2022-08-16T10:05:08.241Z,14.57
2022-08-16T10:06:11.179Z,13.62
2022-08-16T10:07:15.316Z,14.07
2022-08-16T10:08:25.406Z,13.71
2022-08-16T10:09:08.405Z,14.05
2022-08-16T10:10:11.610Z,13.88
2022-08-16T10:11:09.452Z,13.66
2022-08-16T10:12:11.470Z,13.93
2022-08-16T10:13:08.477Z,14.11
2022-08-16T10:14:08.135Z,14.02
2022-08-16T10:15:08.145Z,14.11
2022-08-16T10:16:08.175Z,14.21
2022-08-16T10:17:08.138Z,14.18
2022-08-16T10:18:53.945Z,14.24
2022-08-16T10:19:08.212Z,14.53
2022-08-16T10:20:08.240Z,14.44
2022-08-16T10:21:08.128Z,15.02
2022-08-16T10:22:08.124Z,14.59
2022-08-16T10:23:09.782Z,14.08
2022-08-16T10:24:08.132Z,14.63
2022-08-16T10:25:08.133Z,14.03
2022-08-16T10:27:16.381Z,13.96
2022-08-16T10:27:26.114Z,14.14
2022-08-16T10:28:28.151Z,13.81
2022-08-16T10:29:08.128Z,14.1
2022-08-16T10:30:25.048Z,13.85
2022-08-16T10:31:08.228Z,14.27
2022-08-16T10:32:08.135Z,13.72
2022-08-16T10:33:08.178Z,13.71
2022-08-16T10:34:31.901Z,13.56
2022-08-16T10:35:08.201Z,13.66
2022-08-16T10:36:08.142Z,13.85
2022-08-16T10:37:08.145Z,13.93
2022-08-16T10:38:09.646Z,13.93
2022-08-16T10:39:08.516Z,13.79
2022-08-16T10:40:29.407Z,13.77
2022-08-16T10:41:08.204Z,13.83
2022-08-16T10:42:08.213Z,13.9
2022-08-16T10:43:08.479Z,13.9
2022-08-16T10:44:09.421Z,13.93
2022-08-16T10:45:08.133Z,13.92
2022-08-16T10:46:33.629Z,13.87
2022-08-16T10:47:08.203Z,13.7
2022-08-16T10:48:27.179Z,13.8
2022-08-16T10:49:08.140Z,14.01
2022-08-16T10:50:18.993Z,14.09
2022-08-16T10:51:08.154Z,13.95
2022-08-16T10:52:18.704Z,13.78
2022-08-16T10:53:08.154Z,13.32
2022-08-16T10:54:08.197Z,13.39
2022-08-16T10:56:52.435Z,13.32
2022-08-16T10:57:12.031Z,13.53
2022-08-16T10:58:11.498Z,13.35
2022-08-16T11:00:20.817Z,13.44
2022-08-16T11:03:37.432Z,13.53
2022-08-16T11:03:42.991Z,13.24
2022-08-16T11:05:04.331Z,13.66
2022-08-16T11:05:09.425Z,13.8
2022-08-16T11:06:09.516Z,13.79
2022-08-16T11:07:08.777Z,13.32
2022-08-16T11:08:08.201Z,13.52
2022-08-16T11:09:25.655Z,13.22
2022-08-16T11:11:12.737Z,13.27
2022-08-16T11:12:13.814Z,13.24
2022-08-16T11:14:11.664Z,13.52
2022-08-16T11:15:12.043Z,13.12
2022-08-16T11:17:10.885Z,13.49
2022-08-16T11:19:04.429Z,13.57
2022-08-16T11:19:12.475Z,12.96
2022-08-16T11:21:08.145Z,13.69
2022-08-16T11:22:38.944Z,13.64
2022-08-16T11:23:08.185Z,13.73
2022-08-16T11:24:39.595Z,13.9
2022-08-16T11:26:06.027Z,13.07
2022-08-16T11:26:23.514Z,13.26
2022-08-16T11:27:26.879Z,13.35
2022-08-16T11:28:08.146Z,13.62
2022-08-16T11:29:15.369Z,12.96
2022-08-16T11:30:09.148Z,13.1
2022-08-16T11:31:08.166Z,13.44
2022-08-16T11:32:08.151Z,13.55
2022-08-16T11:33:08.228Z,13.86
2022-08-16T11:34:08.163Z,13.6
2022-08-16T11:35:10.273Z,13.57
2022-08-16T11:36:24.971Z,13.16
2022-08-16T11:37:14.996Z,12.81
2022-08-16T11:38:46.760Z,12.97
2022-08-16T11:39:08.166Z,13.46
2022-08-16T11:40:08.259Z,12.81
2022-08-16T11:41:08.157Z,13.08
2022-08-16T11:42:28.666Z,12.98
2022-08-16T11:43:10.077Z,12.98
2022-08-16T11:44:08.199Z,13.46
2022-08-16T11:45:08.243Z,12.71
2022-08-16T11:46:44.141Z,12.84
2022-08-16T11:47:08.367Z,12.35
2022-08-16T11:48:08.160Z,12.76
2022-08-16T11:49:13.239Z,12.64
2022-08-16T11:50:08.202Z,12.67
2022-08-16T11:51:08.267Z,12.32
2022-08-16T11:52:08.572Z,12.75
2022-08-16T11:53:08.592Z,12.38
2022-08-16T11:54:08.905Z,12.67
2022-08-16T11:55:08.427Z,13.43
2022-08-16T11:56:08.512Z,13.28
2022-08-16T11:57:09.177Z,13.12
2022-08-16T11:58:08.567Z,13.32
2022-08-16T11:59:08.161Z,13.13
2022-08-16T12:00:08.155Z,13.2
2022-08-16T12:01:08.155Z,13.09
2022-08-16T12:02:32.395Z,12.83
2022-08-16T12:03:08.159Z,12.93
2022-08-16T12:04:08.227Z,13.13
2022-08-16T12:05:08.206Z,13.06
2022-08-16T12:06:08.171Z,13.28
2022-08-16T12:07:08.181Z,13.49
2022-08-16T12:08:08.165Z,13.16
2022-08-16T12:09:08.151Z,12.92
2022-08-16T12:10:08.156Z,13.25
2022-08-16T12:11:08.221Z,13.21
2022-08-16T12:12:08.209Z,12.66
2022-08-16T12:13:10.256Z,12.51
2022-08-16T12:14:08.173Z,12.71
2022-08-16T12:15:08.219Z,12.7
2022-08-16T12:16:08.176Z,12.63
2022-08-16T12:17:08.513Z,12.82
2022-08-16T12:18:08.220Z,12.66
2022-08-16T12:19:10.782Z,12.64
2022-08-16T12:20:09.215Z,12.96
2022-08-16T12:21:09.807Z,12.54
2022-08-16T12:22:18.690Z,12.76
2022-08-16T12:23:08.175Z,13.02
2022-08-16T12:24:08.166Z,12.75
2022-08-16T12:25:08.224Z,12.5
2022-08-16T12:26:10.329Z,12.45
2022-08-16T12:27:08.344Z,12.34
2022-08-16T12:28:08.173Z,12.63
2022-08-16T12:29:08.191Z,12.53
2022-08-16T12:30:08.277Z,12.14
2022-08-16T12:31:08.169Z,12.49
2022-08-16T12:32:35.609Z,12.47
2022-08-16T12:33:08.430Z,12.56
2022-08-16T12:34:08.487Z,12.58
2022-08-16T12:35:08.196Z,12.77
2022-08-16T12:36:09.903Z,12.5
2022-08-16T12:37:11.750Z,12.54
2022-08-16T12:38:37.774Z,12.45
2022-08-16T12:39:08.232Z,12.35
2022-08-16T12:40:08.276Z,12.48
2022-08-16T12:41:08.335Z,12.07
2022-08-16T12:42:08.187Z,12.7
2022-08-16T12:43:08.178Z,12.35
2022-08-16T12:44:08.200Z,12.26
2022-08-16T12:45:08.194Z,12.39
2022-08-16T12:46:08.755Z,12.25
2022-08-16T12:47:08.218Z,11.99
2022-08-16T12:48:29.760Z,12.24
2022-08-16T12:49:08.200Z,12.37
2022-08-16T12:50:10.476Z,12.54
2022-08-16T12:51:13.503Z,13.22
2022-08-16T12:52:08.184Z,13.12
2022-08-16T12:53:08.235Z,12.69
2022-08-16T12:54:08.235Z,12.92
2022-08-16T12:55:08.568Z,13.19
2022-08-16T12:56:08.184Z,12.88
2022-08-16T12:57:08.189Z,12.44
2022-08-16T12:58:13.992Z,12.14
2022-08-16T12:59:08.172Z,12.32
2022-08-16T13:00:08.247Z,12.43
2022-08-16T13:01:08.363Z,12.19
2022-08-16T13:02:08.185Z,12.18
2022-08-16T13:03:08.186Z,12.58
2022-08-16T13:04:12.304Z,12.6